createdAt,value
2023-01-17T00:02:08.648Z,7.56
2023-01-17T00:04:53.988Z,7.58
2023-01-17T00:07:40.807Z,7.56
2023-01-17T00:10:12.444Z,7.56
2023-01-17T00:12:40.309Z,7.53
2023-01-17T00:15:09.520Z,7.55
2023-01-17T00:17:37.292Z,7.57
2023-01-17T00:20:23.269Z,7.50
2023-01-17T00:23:08.602Z,7.53
2023-01-17T00:25:57.296Z,7.54
2023-01-17T00:28:24.597Z,7.53
2023-01-17T00:30:51.440Z,7.51
2023-01-17T00:33:18.419Z,7.52
2023-01-17T00:35:44.998Z,7.42
2023-01-17T00:38:13.627Z,7.40
2023-01-17T00:40:43.771Z,7.37
2023-01-17T00:43:30.707Z,7.37
2023-01-17T00:46:15.939Z,7.42
2023-01-17T00:49:01.719Z,7.44
2023-01-17T00:51:48.238Z,7.44
2023-01-17T00:54:34.171Z,7.42
2023-01-17T00:57:21.678Z,7.38
2023-01-17T01:00:07.216Z,7.39
2023-01-17T01:02:52.540Z,7.37
2023-01-17T01:05:37.943Z,7.37
2023-01-17T01:08:34.588Z,7.33
2023-01-17T01:11:22.767Z,7.26
2023-01-17T01:14:09.269Z,7.25
2023-01-17T01:16:56.629Z,7.22
2023-01-17T01:19:42.181Z,7.19
2023-01-17T01:22:27.357Z,7.14
2023-01-17T01:25:12.773Z,7.17
2023-01-17T01:27:58.203Z,7.22
2023-01-17T01:30:44.805Z,7.22
2023-01-17T01:33:19.494Z,7.22
2023-01-17T01:35:49.311Z,7.23
2023-01-17T01:38:17.452Z,7.26
2023-01-17T01:40:46.831Z,7.24
2023-01-17T01:43:16.131Z,7.24
2023-01-17T01:45:51.729Z,7.24
2023-01-17T01:48:35.263Z,7.24
2023-01-17T01:51:08.585Z,7.24
2023-01-17T01:53:41.823Z,7.24
2023-01-17T01:56:13.610Z,7.24
2023-01-17T01:58:42.631Z,7.25
2023-01-17T02:01:11.821Z,7.24
2023-01-17T02:03:41.952Z,7.24
2023-01-17T02:06:21.676Z,7.24
2023-01-17T02:08:50.049Z,7.25
2023-01-17T02:11:18.089Z,7.26
2023-01-17T02:13:46.072Z,7.24
2023-01-17T02:16:26.522Z,7.22
2023-01-17T02:19:04.111Z,7.22
2023-01-17T02:21:35.762Z,7.19
2023-01-17T02:24:42.515Z,7.17
2023-01-17T02:27:20.478Z,7.15
2023-01-17T02:30:14.736Z,7.15
2023-01-17T02:33:08.254Z,7.14
2023-01-17T02:35:43.938Z,7.11
2023-01-17T02:38:19.945Z,7.14
2023-01-17T02:40:53.704Z,7.12
2023-01-17T02:43:24.407Z,7.11
2023-01-17T02:45:52.219Z,7.10
2023-01-17T02:48:24.716Z,7.09
2023-01-17T02:51:11.751Z,7.05
2023-01-17T02:53:52.996Z,7.03
2023-01-17T02:56:35.330Z,7.03
2023-01-17T02:59:13.856Z,7.05
2023-01-17T03:01:54.627Z,7.05
2023-01-17T03:04:29.675Z,7.05
2023-01-17T03:07:01.929Z,7.07
2023-01-17T03:09:31.663Z,7.07
2023-01-17T03:12:00.299Z,7.06
2023-01-17T03:14:31.149Z,7.05
2023-01-17T03:16:59.048Z,7.05
2023-01-17T03:19:28.132Z,7.05
2023-01-17T03:21:55.832Z,7.04
2023-01-17T03:24:23.622Z,7.03
2023-01-17T03:26:51.278Z,7.01
2023-01-17T03:29:19.116Z,7.02
2023-01-17T03:31:46.922Z,7.01
2023-01-17T03:34:14.643Z,7.01
2023-01-17T03:36:43.654Z,7.02
2023-01-17T03:39:11.628Z,7.00
2023-01-17T03:41:39.360Z,6.99
2023-01-17T03:44:07.054Z,6.99
2023-01-17T03:46:34.817Z,6.98
2023-01-17T03:49:02.527Z,6.98
2023-01-17T03:51:30.189Z,6.98
2023-01-17T03:53:59.287Z,6.96
2023-01-17T03:56:27.043Z,6.96
2023-01-17T03:58:54.760Z,6.96
2023-01-17T04:01:22.517Z,6.95
2023-01-17T04:03:50.249Z,6.95
2023-01-17T04:06:17.965Z,6.95
2023-01-17T04:08:45.670Z,6.94
2023-01-17T04:11:14.695Z,6.93
2023-01-17T04:13:42.452Z,6.94
2023-01-17T04:16:14.684Z,6.94
2023-01-17T04:18:42.758Z,6.93
2023-01-17T04:21:10.469Z,6.91
2023-01-17T04:23:38.175Z,6.91
2023-01-17T04:26:06.211Z,6.90
2023-01-17T04:28:35.258Z,6.89
2023-01-17T04:31:02.974Z,6.90
2023-01-17T04:33:30.835Z,6.89
2023-01-17T04:35:58.783Z,6.87
2023-01-17T04:38:26.940Z,6.85
2023-01-17T04:40:54.694Z,6.84
2023-01-17T04:43:22.366Z,6.84
2023-01-17T04:45:55.762Z,6.84
2023-01-17T04:48:24.110Z,6.83
2023-01-17T04:50:51.905Z,6.81
2023-01-17T04:53:19.588Z,6.81
2023-01-17T04:55:47.853Z,6.81
2023-01-17T04:58:15.532Z,6.80
2023-01-17T05:00:43.224Z,6.79
2023-01-17T05:03:12.297Z,6.78
2023-01-17T05:05:39.963Z,6.77
2023-01-17T05:08:07.667Z,6.76
2023-01-17T05:10:35.349Z,6.75
2023-01-17T05:13:03.159Z,6.74
2023-01-17T05:15:31.075Z,6.72
2023-01-17T05:17:59.031Z,6.69
2023-01-17T05:20:28.114Z,6.69
2023-01-17T05:22:56.872Z,6.67
2023-01-17T05:25:25.441Z,6.66
2023-01-17T05:27:53.737Z,6.64
2023-01-17T05:30:22.498Z,6.63
2023-01-17T05:32:50.851Z,6.63
2023-01-17T05:35:19.648Z,6.62
2023-01-17T05:37:49.956Z,6.61
2023-01-17T05:40:17.993Z,6.61
2023-01-17T05:42:47.167Z,6.60
2023-01-17T05:45:16.876Z,6.59
2023-01-17T05:47:44.854Z,6.58
2023-01-17T05:50:13.491Z,6.57
2023-01-17T05:52:41.742Z,6.57
2023-01-17T05:55:11.205Z,6.56
2023-01-17T05:57:39.928Z,6.57
2023-01-17T06:00:09.830Z,6.56
2023-01-17T06:02:37.581Z,6.55
2023-01-17T06:05:06.112Z,6.57
2023-01-17T06:07:34.417Z,6.54
2023-01-17T06:10:02.287Z,6.53
2023-01-17T06:12:32.252Z,6.51
2023-01-17T06:15:00.074Z,6.52
2023-01-17T06:17:27.820Z,6.51
2023-01-17T06:19:55.530Z,6.49
2023-01-17T06:22:23.210Z,6.48
2023-01-17T06:24:51.081Z,6.48
2023-01-17T06:27:18.965Z,6.48
2023-01-17T06:29:48.065Z,6.46
2023-01-17T06:32:15.812Z,6.45
2023-01-17T06:34:43.510Z,6.43
2023-01-17T06:37:11.585Z,6.44
2023-01-17T06:39:39.296Z,6.43
2023-01-17T06:42:07.076Z,6.42
2023-01-17T06:44:35.263Z,6.40
2023-01-17T06:47:04.426Z,6.40
2023-01-17T06:49:32.215Z,6.39
2023-01-17T06:51:59.976Z,6.39
2023-01-17T06:54:28.102Z,6.38
2023-01-17T06:56:55.893Z,6.35
2023-01-17T06:59:23.653Z,6.36
2023-01-17T07:01:51.455Z,6.35
2023-01-17T07:04:20.737Z,6.36
2023-01-17T07:06:48.476Z,6.35
2023-01-17T07:09:16.269Z,6.34
2023-01-17T07:11:45.377Z,6.33
2023-01-17T07:14:14.688Z,6.31
2023-01-17T07:16:45.327Z,6.15
2023-01-17T07:19:13.843Z,6.14
2023-01-17T07:21:42.848Z,6.14
2023-01-17T07:24:10.967Z,6.16
2023-01-17T07:26:40.239Z,6.19
2023-01-17T07:29:08.177Z,6.25
2023-01-17T07:31:38.143Z,6.38
2023-01-17T07:34:05.842Z,6.53
2023-01-17T07:36:33.665Z,6.72
2023-01-17T07:39:04.308Z,6.84
2023-01-17T07:41:34.638Z,6.98
2023-01-17T07:44:02.348Z,7.16
2023-01-17T07:46:31.848Z,7.28
2023-01-17T07:48:59.536Z,7.37
2023-01-17T07:51:27.253Z,7.30
2023-01-17T07:53:54.964Z,7.18
2023-01-17T07:56:24.337Z,7.03
2023-01-17T07:58:52.015Z,6.92
2023-01-17T08:01:19.821Z,6.83
2023-01-17T08:03:47.594Z,6.75
2023-01-17T08:06:19.803Z,6.68
2023-01-17T08:08:47.873Z,6.61
2023-01-17T08:11:15.929Z,6.58
2023-01-17T08:13:44.970Z,6.47
2023-01-17T08:16:13.628Z,6.50
2023-01-17T08:18:41.521Z,6.47
2023-01-17T08:21:14.588Z,6.39
2023-01-17T08:23:42.297Z,6.40
2023-01-17T08:26:10.180Z,6.38
2023-01-17T08:28:37.916Z,6.35
2023-01-17T08:31:10.845Z,6.32
2023-01-17T08:33:38.615Z,6.30
2023-01-17T08:36:06.736Z,6.30
2023-01-17T08:38:34.460Z,6.28
2023-01-17T08:41:02.726Z,6.28
2023-01-17T08:43:30.419Z,6.25
2023-01-17T08:45:58.175Z,6.25
2023-01-17T08:48:27.333Z,6.22
2023-01-17T08:50:55.032Z,6.21
2023-01-17T08:53:23.403Z,6.19
2023-01-17T08:55:58.669Z,6.19
2023-01-17T08:58:29.750Z,6.18
2023-01-17T09:01:01.094Z,6.18
2023-01-17T09:03:30.240Z,6.14
2023-01-17T09:06:06.129Z,6.16
2023-01-17T09:08:34.419Z,6.15
2023-01-17T09:11:04.703Z,6.14
2023-01-17T09:13:32.522Z,6.13
2023-01-17T09:16:00.781Z,6.13
2023-01-17T09:18:31.250Z,6.12
2023-01-17T09:20:59.436Z,6.13
2023-01-17T09:23:28.688Z,6.14
2023-01-17T09:25:57.669Z,6.12
2023-01-17T09:28:26.484Z,6.12
2023-01-17T09:30:54.313Z,6.11
2023-01-17T09:33:23.194Z,6.09
2023-01-17T09:35:52.312Z,6.14
2023-01-17T09:38:21.747Z,6.12
2023-01-17T09:40:49.963Z,6.12
2023-01-17T09:43:25.023Z,6.12
2023-01-17T09:45:53.276Z,6.11
2023-01-17T09:48:29.265Z,6.09
2023-01-17T09:51:04.012Z,6.13
2023-01-17T09:53:35.251Z,6.11
2023-01-17T09:56:07.781Z,6.14
2023-01-17T09:58:42.583Z,6.15
2023-01-17T10:01:16.725Z,6.16
2023-01-17T10:04:12.564Z,6.16
2023-01-17T10:07:00.816Z,6.18
2023-01-17T10:09:58.934Z,6.18
2023-01-17T10:12:31.994Z,6.18
2023-01-17T10:15:18.104Z,6.18
2023-01-17T10:17:54.581Z,6.19
2023-01-17T10:20:46.204Z,6.22
2023-01-17T10:23:33.242Z,6.23
2023-01-17T10:26:04.187Z,6.25
2023-01-17T10:28:37.430Z,6.24
2023-01-17T10:31:09.125Z,6.25
2023-01-17T10:33:42.701Z,6.24
2023-01-17T10:36:16.758Z,6.25
2023-01-17T10:38:49.693Z,6.21
2023-01-17T10:41:23.435Z,6.17
2023-01-17T10:43:59.839Z,6.24
2023-01-17T10:46:35.161Z,6.40
2023-01-17T10:49:03.670Z,6.59
2023-01-17T10:51:59.960Z,6.77
2023-01-17T10:54:41.659Z,6.97
2023-01-17T10:57:15.965Z,7.15
2023-01-17T10:59:44.168Z,7.34
2023-01-17T11:02:21.253Z,7.54
2023-01-17T11:04:54.292Z,7.72
2023-01-17T11:07:23.885Z,7.90
2023-01-17T11:09:54.302Z,8.10
2023-01-17T11:12:27.565Z,8.23
2023-01-17T11:15:07.590Z,8.34
2023-01-17T11:17:37.770Z,8.42
2023-01-17T11:20:16.535Z,8.52
2023-01-17T11:23:02.623Z,8.56
2023-01-17T11:25:34.364Z,8.41
2023-01-17T11:28:05.541Z,8.22
2023-01-17T11:30:33.963Z,8.01
2023-01-17T11:33:06.069Z,7.81
2023-01-17T11:35:36.488Z,7.67
2023-01-17T11:38:12.638Z,7.54
2023-01-17T11:40:43.331Z,7.44
2023-01-17T11:43:23.433Z,7.38
2023-01-17T11:46:07.146Z,7.30
2023-01-17T11:48:37.836Z,7.24
2023-01-17T11:51:15.814Z,7.21
2023-01-17T11:53:48.122Z,7.11
2023-01-17T11:56:27.993Z,7.17
2023-01-17T11:59:25.104Z,7.14
2023-01-17T12:02:16.211Z,7.13
2023-01-17T12:04:48.278Z,7.08
2023-01-17T12:07:26.179Z,7.08
2023-01-17T12:10:02.087Z,7.08
2023-01-17T12:13:00.136Z,7.07
2023-01-17T12:15:35.111Z,7.04
2023-01-17T12:18:24.667Z,7.05
2023-01-17T12:21:03.304Z,7.05
2023-01-17T12:23:45.465Z,7.04
2023-01-17T12:26:27.600Z,7.04
2023-01-17T12:29:21.845Z,7.04
2023-01-17T12:32:01.902Z,7.05
2023-01-17T12:34:35.560Z,7.05
2023-01-17T12:37:14.049Z,6.94
2023-01-17T12:39:48.181Z,7.09
2023-01-17T12:42:21.265Z,7.26
2023-01-17T12:44:57.881Z,7.46
2023-01-17T12:47:26.515Z,7.70
2023-01-17T12:50:03.167Z,7.90
2023-01-17T12:52:42.499Z,8.09
2023-01-17T12:55:15.514Z,8.32
2023-01-17T12:57:47.274Z,8.47
2023-01-17T13:00:23.012Z,8.62
2023-01-17T13:02:55.150Z,8.81
2023-01-17T13:05:26.216Z,8.91
2023-01-17T13:08:03.021Z,8.99
2023-01-17T13:10:36.007Z,8.97
2023-01-17T13:13:14.214Z,8.82
2023-01-17T13:15:44.384Z,8.57
2023-01-17T13:18:16.051Z,8.37
2023-01-17T13:21:08.854Z,8.18
2023-01-17T13:23:55.875Z,8.02
2023-01-17T13:26:33.228Z,7.89
2023-01-17T13:29:10.270Z,7.78
2023-01-17T13:31:47.989Z,7.75
2023-01-17T13:34:41.437Z,7.71
2023-01-17T13:37:33.552Z,7.65
2023-01-17T13:40:19.549Z,7.78
2023-01-17T13:42:55.904Z,7.96
2023-01-17T13:45:27.059Z,8.13
2023-01-17T13:48:11.451Z,8.37
2023-01-17T13:50:52.991Z,8.57
2023-01-17T13:53:47.742Z,8.81
2023-01-17T13:56:24.272Z,8.89
2023-01-17T13:59:03.228Z,8.86
2023-01-17T14:01:50.732Z,8.69
2023-01-17T14:04:19.940Z,8.49
2023-01-17T14:06:50.120Z,8.31
2023-01-17T14:09:25.987Z,8.16
2023-01-17T14:12:00.769Z,8.03
2023-01-17T14:14:52.000Z,7.90
2023-01-17T14:17:59.616Z,7.83
2023-01-17T14:21:04.398Z,7.77
2023-01-17T14:23:52.086Z,7.70
2023-01-17T14:26:26.851Z,7.65
2023-01-17T14:28:56.255Z,7.67
2023-01-17T14:31:25.223Z,7.81
2023-01-17T14:33:54.174Z,7.97
2023-01-17T14:36:31.487Z,8.17
2023-01-17T14:38:59.231Z,8.36
2023-01-17T14:41:29.154Z,8.53
2023-01-17T14:43:58.399Z,8.72
2023-01-17T14:46:28.691Z,8.93
2023-01-17T14:49:02.180Z,9.06
2023-01-17T14:51:35.091Z,9.15
2023-01-17T14:54:05.482Z,9.25
2023-01-17T14:56:33.794Z,9.17
2023-01-17T14:59:16.987Z,8.99
2023-01-17T15:02:06.683Z,8.77
2023-01-17T15:04:39.456Z,8.56
2023-01-17T15:07:15.812Z,8.38
2023-01-17T15:09:45.150Z,8.25
2023-01-17T15:12:14.835Z,8.12
2023-01-17T15:14:45.557Z,8.04
2023-01-17T15:17:20.097Z,7.96
2023-01-17T15:19:53.139Z,7.90
2023-01-17T15:22:23.588Z,7.86
2023-01-17T15:24:51.870Z,7.81
2023-01-17T15:27:19.945Z,7.77
2023-01-17T15:29:48.342Z,7.73
2023-01-17T15:32:22.369Z,7.68
2023-01-17T15:34:52.287Z,7.64
2023-01-17T15:37:30.101Z,7.62
2023-01-17T15:40:07.610Z,7.60
2023-01-17T15:42:39.819Z,7.56
2023-01-17T15:45:15.522Z,7.53
2023-01-17T15:47:43.458Z,7.54
2023-01-17T15:50:30.203Z,7.59
2023-01-17T15:53:01.888Z,7.78
2023-01-17T15:55:32.495Z,7.91
2023-01-17T15:58:00.754Z,8.21
2023-01-17T16:00:37.680Z,8.46
2023-01-17T16:03:20.869Z,8.61
2023-01-17T16:05:49.897Z,8.53
2023-01-17T16:08:33.975Z,8.40
2023-01-17T16:11:03.707Z,8.11
2023-01-17T16:13:33.032Z,7.97
2023-01-17T16:16:15.136Z,7.84
2023-01-17T16:18:43.485Z,7.76
2023-01-17T16:21:19.780Z,7.67
2023-01-17T16:23:48.859Z,7.59
2023-01-17T16:26:16.850Z,7.55
2023-01-17T16:28:44.765Z,7.49
2023-01-17T16:31:12.850Z,7.45
2023-01-17T16:33:42.057Z,7.42
2023-01-17T16:36:14.714Z,7.40
2023-01-17T16:38:42.568Z,7.37
2023-01-17T16:41:11.774Z,7.32
2023-01-17T16:43:39.491Z,7.29
2023-01-17T16:46:07.519Z,7.23
2023-01-17T16:48:35.218Z,7.24
2023-01-17T16:51:06.777Z,7.22
2023-01-17T16:53:34.707Z,7.19
2023-01-17T16:56:10.210Z,7.17
2023-01-17T16:58:39.372Z,7.17
2023-01-17T17:01:10.227Z,7.16
2023-01-17T17:03:38.397Z,7.28
2023-01-17T17:06:06.430Z,7.43
2023-01-17T17:08:35.527Z,7.65
2023-01-17T17:11:14.913Z,7.84
2023-01-17T17:13:45.662Z,8.01
2023-01-17T17:16:15.901Z,8.19
2023-01-17T17:18:44.096Z,8.38
2023-01-17T17:21:11.960Z,8.56
2023-01-17T17:23:39.747Z,8.61
2023-01-17T17:26:07.607Z,8.54
2023-01-17T17:28:35.755Z,8.34
2023-01-17T17:31:10.379Z,8.14
2023-01-17T17:33:38.743Z,7.97
2023-01-17T17:36:10.182Z,7.83
2023-01-17T17:38:50.695Z,7.73
2023-01-17T17:41:20.659Z,7.55
2023-01-17T17:43:48.821Z,7.56
2023-01-17T17:46:18.446Z,7.49
2023-01-17T17:48:46.182Z,7.44
2023-01-17T17:51:23.598Z,7.41
2023-01-17T17:53:52.677Z,7.37
2023-01-17T17:56:20.593Z,7.32
2023-01-17T17:58:48.874Z,7.30
2023-01-17T18:01:18.156Z,7.28
2023-01-17T18:03:46.128Z,7.26
2023-01-17T18:06:15.897Z,7.22
2023-01-17T18:08:43.709Z,7.17
2023-01-17T18:11:14.883Z,7.15
2023-01-17T18:13:43.415Z,7.13
2023-01-17T18:16:12.798Z,7.13
2023-01-17T18:18:44.794Z,7.27
2023-01-17T18:21:14.480Z,7.42
2023-01-17T18:23:45.566Z,7.54
2023-01-17T18:26:18.516Z,7.76
2023-01-17T18:28:46.493Z,7.97
2023-01-17T18:31:14.370Z,8.04
2023-01-17T18:33:43.481Z,7.96
2023-01-17T18:36:12.866Z,7.82
2023-01-17T18:38:42.398Z,7.71
2023-01-17T18:41:12.722Z,7.59
2023-01-17T18:43:40.965Z,7.47
2023-01-17T18:46:09.869Z,7.40
2023-01-17T18:48:38.516Z,7.33
2023-01-17T18:51:09.126Z,7.29
2023-01-17T18:53:38.486Z,7.25
2023-01-17T18:56:08.514Z,7.23
2023-01-17T18:58:38.795Z,7.19
2023-01-17T19:01:08.676Z,7.20
2023-01-17T19:03:36.544Z,7.18
2023-01-17T19:06:06.017Z,7.15
2023-01-17T19:08:36.295Z,7.12
2023-01-17T19:11:04.551Z,7.10
2023-01-17T19:13:32.727Z,7.05
2023-01-17T19:16:01.990Z,7.05
2023-01-17T19:18:30.186Z,7.02
2023-01-17T19:21:03.833Z,6.99
2023-01-17T19:23:31.560Z,7.01
2023-01-17T19:26:00.611Z,7.18
2023-01-17T19:28:29.088Z,7.33
2023-01-17T19:31:03.999Z,7.51
2023-01-17T19:33:31.815Z,7.65
2023-01-17T19:36:00.770Z,7.67
2023-01-17T19:38:28.739Z,7.59
2023-01-17T19:40:56.515Z,7.55
2023-01-17T19:43:25.691Z,7.46
2023-01-17T19:45:58.534Z,7.39
2023-01-17T19:48:26.808Z,7.31
2023-01-17T19:50:55.562Z,7.24
2023-01-17T19:53:23.642Z,7.21
2023-01-17T19:55:51.418Z,7.15
2023-01-17T19:58:19.190Z,7.13
2023-01-17T20:00:48.319Z,7.08
2023-01-17T20:03:16.090Z,7.02
2023-01-17T20:05:46.033Z,6.97
2023-01-17T20:08:14.227Z,6.95
2023-01-17T20:10:41.912Z,6.83
2023-01-17T20:13:09.618Z,6.88
2023-01-17T20:15:37.318Z,6.84
2023-01-17T20:18:06.591Z,6.84
2023-01-17T20:20:34.448Z,6.81
2023-01-17T20:23:05.523Z,6.79
2023-01-17T20:25:33.259Z,6.77
2023-01-17T20:28:01.304Z,6.75
2023-01-17T20:30:31.810Z,6.72
2023-01-17T20:32:59.893Z,6.71
2023-01-17T20:35:29.694Z,6.72
2023-01-17T20:37:57.751Z,6.71
2023-01-17T20:40:25.667Z,6.69
2023-01-17T20:42:53.444Z,6.68
2023-01-17T20:45:21.157Z,6.67
2023-01-17T20:47:49.610Z,6.66
2023-01-17T20:50:17.515Z,6.64
2023-01-17T20:52:48.145Z,6.63
2023-01-17T20:55:15.960Z,6.61
2023-01-17T20:57:43.696Z,6.61
2023-01-17T21:00:12.830Z,6.59
2023-01-17T21:02:40.589Z,6.57
2023-01-17T21:05:12.746Z,6.56
2023-01-17T21:07:40.446Z,6.55
2023-01-17T21:10:10.558Z,6.54
2023-01-17T21:12:38.337Z,6.52
2023-01-17T21:15:07.009Z,6.49
2023-01-17T21:17:35.934Z,6.48
2023-01-17T21:20:08.010Z,6.47
2023-01-17T21:22:35.729Z,6.46
2023-01-17T21:25:03.416Z,6.45
2023-01-17T21:27:32.483Z,6.44
2023-01-17T21:30:00.201Z,6.43
2023-01-17T21:32:29.081Z,6.41
2023-01-17T21:34:56.754Z,6.40
2023-01-17T21:37:24.483Z,6.40
2023-01-17T21:39:54.863Z,6.39
2023-01-17T21:42:22.558Z,6.38
2023-01-17T21:44:52.037Z,6.36
2023-01-17T21:47:20.023Z,6.36
2023-01-17T21:49:47.713Z,6.36
2023-01-17T21:52:21.331Z,6.33
2023-01-17T21:55:06.285Z,6.25
2023-01-17T21:57:51.622Z,6.31
2023-01-17T22:00:21.029Z,6.31
2023-01-17T22:02:49.496Z,6.28
2023-01-17T22:05:18.525Z,6.30
2023-01-17T22:08:00.257Z,6.28
2023-01-17T22:10:27.978Z,6.28
2023-01-17T22:12:55.746Z,6.26
2023-01-17T22:15:24.878Z,6.27
2023-01-17T22:17:52.591Z,6.23
2023-01-17T22:20:21.393Z,6.23
2023-01-17T22:22:49.128Z,6.22
2023-01-17T22:25:16.996Z,6.22
2023-01-17T22:27:44.695Z,6.21
2023-01-17T22:30:13.886Z,6.21
2023-01-17T22:32:42.983Z,6.19
2023-01-17T22:35:10.840Z,6.17
2023-01-17T22:37:38.541Z,6.16
2023-01-17T22:40:07.570Z,6.13
2023-01-17T22:42:35.475Z,6.15
2023-01-17T22:45:03.270Z,6.13
2023-01-17T22:47:30.931Z,6.12
2023-01-17T22:49:59.978Z,6.10
2023-01-17T22:52:27.677Z,6.09
2023-01-17T22:54:55.460Z,6.07
2023-01-17T22:57:23.468Z,6.07
2023-01-17T22:59:51.425Z,6.07
2023-01-17T23:02:19.286Z,6.04
2023-01-17T23:04:47.548Z,6.04
2023-01-17T23:07:16.915Z,5.99
2023-01-17T23:09:45.679Z,6.02
2023-01-17T23:12:13.414Z,6.01
2023-01-17T23:14:58.608Z,6.00
2023-01-17T23:17:43.870Z,5.99
2023-01-17T23:20:12.557Z,5.98
2023-01-17T23:22:41.590Z,5.97
2023-01-17T23:25:12.226Z,5.95
2023-01-17T23:27:59.741Z,5.94
2023-01-17T23:30:29.034Z,5.93
2023-01-17T23:32:58.909Z,5.92
2023-01-17T23:35:29.107Z,5.89
2023-01-17T23:38:16.101Z,5.85
2023-01-17T23:41:04.728Z,5.87
2023-01-17T23:43:31.704Z,5.87
2023-01-17T23:45:59.585Z,5.85
2023-01-17T23:48:28.110Z,5.86
2023-01-17T23:50:59.118Z,5.84
2023-01-17T23:53:28.991Z,5.84
2023-01-17T23:55:59.527Z,5.84
2023-01-17T23:58:28.721Z,5.84
